sensor_id;sensor_type;location;lat;lon;timestamp;P1;durP1;ratioP1;P2;durP2;ratioP2
1649;SDS011;822;53.670;8.676;2022-09-09T00:00:40;22.33;;;20.03;;
1649;SDS011;822;53.670;8.676;2022-09-09T00:03:14;21.50;;;18.70;;
1649;SDS011;822;53.670;8.676;2022-09-09T00:05:44;20.70;;;18.60;;
1649;SDS011;822;53.670;8.676;2022-09-09T00:08:18;22.77;;;19.47;;
1649;SDS011;822;53.670;8.676;2022-09-09T00:10:48;20.00;;;18.00;;
1649;SDS011;822;53.670;8.676;2022-09-09T00:13:19;22.40;;;20.10;;
1649;SDS011;822;53.670;8.676;2022-09-09T00:15:52;21.67;;;19.37;;
1649;SDS011;822;53.670;8.676;2022-09-09T00:18:24;22.03;;;19.70;;
1649;SDS011;822;53.670;8.676;2022-09-09T00:20:55;23.07;;;20.33;;
1649;SDS011;822;53.670;8.676;2022-09-09T00:23:25;22.37;;;20.03;;
1649;SDS011;822;53.670;8.676;2022-09-09T00:25:59;26.13;;;21.73;;
1649;SDS011;822;53.670;8.676;2022-09-09T00:28:29;23.77;;;21.30;;
1649;SDS011;822;53.670;8.676;2022-09-09T00:30:59;29.20;;;23.40;;
1649;SDS011;822;53.670;8.676;2022-09-09T00:33:29;27.90;;;24.10;;
1649;SDS011;822;53.670;8.676;2022-09-09T00:35:57;24.07;;;21.47;;
1649;SDS011;822;53.670;8.676;2022-09-09T00:38:25;29.27;;;24.87;;
1649;SDS011;822;53.670;8.676;2022-09-09T00:40:56;25.70;;;23.07;;
1649;SDS011;822;53.670;8.676;2022-09-09T00:43:28;28.20;;;25.13;;
1649;SDS011;822;53.670;8.676;2022-09-09T00:48:51;26.10;;;23.40;;
1649;SDS011;822;53.670;8.676;2022-09-09T00:51:25;27.87;;;22.87;;
1649;SDS011;822;53.670;8.676;2022-09-09T00:54:07;27.73;;;23.63;;
1649;SDS011;822;53.670;8.676;2022-09-09T00:56:42;28.47;;;24.57;;
1649;SDS011;822;53.670;8.676;2022-09-09T00:59:16;27.10;;;24.20;;
1649;SDS011;822;53.670;8.676;2022-09-09T01:01:50;28.27;;;25.27;;
1649;SDS011;822;53.670;8.676;2022-09-09T01:04:20;25.90;;;23.20;;
1649;SDS011;822;53.670;8.676;2022-09-09T01:06:53;24.67;;;22.00;;
1649;SDS011;822;53.670;8.676;2022-09-09T01:09:25;27.43;;;23.07;;
1649;SDS011;822;53.670;8.676;2022-09-09T01:11:57;25.00;;;22.40;;
1649;SDS011;822;53.670;8.676;2022-09-09T01:14:35;22.70;;;20.60;;
1649;SDS011;822;53.670;8.676;2022-09-09T01:17:08;26.57;;;23.67;;
1649;SDS011;822;53.670;8.676;2022-09-09T01:19:40;26.93;;;23.30;;
1649;SDS011;822;53.670;8.676;2022-09-09T01:22:15;25.10;;;21.67;;
1649;SDS011;822;53.670;8.676;2022-09-09T01:24:53;25.27;;;22.57;;
1649;SDS011;822;53.670;8.676;2022-09-09T01:27:34;24.40;;;21.83;;
1649;SDS011;822;53.670;8.676;2022-09-09T01:30:04;27.17;;;21.93;;
1649;SDS011;822;53.670;8.676;2022-09-09T01:32:38;23.03;;;20.63;;
1649;SDS011;822;53.670;8.676;2022-09-09T01:35:08;20.87;;;18.83;;
1649;SDS011;822;53.670;8.676;2022-09-09T01:37:37;20.77;;;18.77;;
1649;SDS011;822;53.670;8.676;2022-09-09T01:40:05;22.17;;;19.87;;
1649;SDS011;822;53.670;8.676;2022-09-09T01:42:34;21.07;;;19.07;;
1649;SDS011;822;53.670;8.676;2022-09-09T01:45:04;21.20;;;19.13;;
1649;SDS011;822;53.670;8.676;2022-09-09T01:47:32;22.33;;;20.13;;
1649;SDS011;822;53.670;8.676;2022-09-09T01:49:59;22.23;;;19.77;;
1649;SDS011;822;53.670;8.676;2022-09-09T01:52:27;22.13;;;19.93;;
1649;SDS011;822;53.670;8.676;2022-09-09T01:54:55;20.20;;;18.17;;
1649;SDS011;822;53.670;8.676;2022-09-09T01:57:23;20.43;;;18.33;;
1649;SDS011;822;53.670;8.676;2022-09-09T01:59:57;21.13;;;19.00;;
1649;SDS011;822;53.670;8.676;2022-09-09T02:02:30;21.57;;;19.27;;
1649;SDS011;822;53.670;8.676;2022-09-09T02:05:04;19.07;;;17.27;;
1649;SDS011;822;53.670;8.676;2022-09-09T02:07:39;22.67;;;20.40;;
1649;SDS011;822;53.670;8.676;2022-09-09T02:10:09;20.40;;;18.30;;
1649;SDS011;822;53.670;8.676;2022-09-09T02:12:39;18.00;;;16.40;;
1649;SDS011;822;53.670;8.676;2022-09-09T02:15:13;20.20;;;18.17;;
1649;SDS011;822;53.670;8.676;2022-09-09T02:17:45;20.83;;;18.73;;
1649;SDS011;822;53.670;8.676;2022-09-09T02:20:15;20.17;;;18.17;;
1649;SDS011;822;53.670;8.676;2022-09-09T02:22:43;21.13;;;17.80;;
1649;SDS011;822;53.670;8.676;2022-09-09T02:25:13;20.43;;;18.50;;
1649;SDS011;822;53.670;8.676;2022-09-09T02:27:41;21.53;;;19.13;;
1649;SDS011;822;53.670;8.676;2022-09-09T02:30:11;20.70;;;18.57;;
1649;SDS011;822;53.670;8.676;2022-09-09T02:32:40;22.43;;;20.03;;
1649;SDS011;822;53.670;8.676;2022-09-09T02:35:10;20.93;;;18.80;;
1649;SDS011;822;53.670;8.676;2022-09-09T02:37:39;21.60;;;18.80;;
1649;SDS011;822;53.670;8.676;2022-09-09T02:40:09;22.23;;;19.83;;
1649;SDS011;822;53.670;8.676;2022-09-09T02:42:38;22.60;;;20.00;;
1649;SDS011;822;53.670;8.676;2022-09-09T02:45:07;27.20;;;21.50;;
1649;SDS011;822;53.670;8.676;2022-09-09T02:47:37;20.83;;;18.47;;
1649;SDS011;822;53.670;8.676;2022-09-09T02:50:08;24.87;;;21.27;;
1649;SDS011;822;53.670;8.676;2022-09-09T02:52:41;23.33;;;20.87;;
1649;SDS011;822;53.670;8.676;2022-09-09T02:55:15;27.03;;;21.37;;
1649;SDS011;822;53.670;8.676;2022-09-09T02:57:43;25.27;;;22.50;;
1649;SDS011;822;53.670;8.676;2022-09-09T03:00:13;24.80;;;21.73;;
1649;SDS011;822;53.670;8.676;2022-09-09T03:02:41;33.70;;;26.33;;
1649;SDS011;822;53.670;8.676;2022-09-09T03:05:10;30.67;;;24.20;;
1649;SDS011;822;53.670;8.676;2022-09-09T03:07:38;26.27;;;22.10;;
1649;SDS011;822;53.670;8.676;2022-09-09T03:10:06;33.40;;;27.00;;
1649;SDS011;822;53.670;8.676;2022-09-09T03:12:34;32.13;;;25.33;;
1649;SDS011;822;53.670;8.676;2022-09-09T03:15:01;32.53;;;24.27;;
1649;SDS011;822;53.670;8.676;2022-09-09T03:17:28;26.43;;;21.67;;
1649;SDS011;822;53.670;8.676;2022-09-09T03:19:57;29.77;;;21.07;;
1649;SDS011;822;53.670;8.676;2022-09-09T03:22:24;23.53;;;19.70;;
1649;SDS011;822;53.670;8.676;2022-09-09T03:24:51;23.07;;;20.33;;
1649;SDS011;822;53.670;8.676;2022-09-09T03:27:18;22.03;;;18.60;;
1649;SDS011;822;53.670;8.676;2022-09-09T03:29:45;26.03;;;19.27;;
1649;SDS011;822;53.670;8.676;2022-09-09T03:32:12;20.70;;;18.27;;
1649;SDS011;822;53.670;8.676;2022-09-09T03:34:42;17.77;;;15.87;;
1649;SDS011;822;53.670;8.676;2022-09-09T03:37:11;19.07;;;16.87;;
1649;SDS011;822;53.670;8.676;2022-09-09T03:39:37;20.63;;;18.43;;
1649;SDS011;822;53.670;8.676;2022-09-09T03:42:04;23.83;;;18.90;;
1649;SDS011;822;53.670;8.676;2022-09-09T03:44:31;20.87;;;17.37;;
1649;SDS011;822;53.670;8.676;2022-09-09T03:46:58;24.23;;;19.80;;
1649;SDS011;822;53.670;8.676;2022-09-09T03:49:26;18.87;;;16.83;;
1649;SDS011;822;53.670;8.676;2022-09-09T03:51:54;19.27;;;17.17;;
1649;SDS011;822;53.670;8.676;2022-09-09T03:54:23;20.33;;;17.63;;
1649;SDS011;822;53.670;8.676;2022-09-09T03:56:50;19.13;;;16.87;;
1649;SDS011;822;53.670;8.676;2022-09-09T03:59:17;19.60;;;14.63;;
1649;SDS011;822;53.670;8.676;2022-09-09T04:01:44;17.70;;;15.37;;
1649;SDS011;822;53.670;8.676;2022-09-09T04:04:12;16.50;;;14.73;;
1649;SDS011;822;53.670;8.676;2022-09-09T04:06:39;17.57;;;14.00;;
1649;SDS011;822;53.670;8.676;2022-09-09T04:09:06;15.73;;;13.17;;
1649;SDS011;822;53.670;8.676;2022-09-09T04:11:34;15.17;;;13.57;;
1649;SDS011;822;53.670;8.676;2022-09-09T04:14:02;17.33;;;12.70;;
1649;SDS011;822;53.670;8.676;2022-09-09T04:16:31;13.60;;;12.20;;
1649;SDS011;822;53.670;8.676;2022-09-09T04:18:58;17.30;;;14.13;;
1649;SDS011;822;53.670;8.676;2022-09-09T04:21:25;13.57;;;11.90;;
1649;SDS011;822;53.670;8.676;2022-09-09T04:23:51;14.40;;;12.90;;
1649;SDS011;822;53.670;8.676;2022-09-09T04:26:18;12.93;;;11.57;;
1649;SDS011;822;53.670;8.676;2022-09-09T04:28:47;14.13;;;12.57;;
1649;SDS011;822;53.670;8.676;2022-09-09T04:31:15;14.13;;;12.40;;
1649;SDS011;822;53.670;8.676;2022-09-09T04:33:43;14.40;;;12.90;;
1649;SDS011;822;53.670;8.676;2022-09-09T04:36:11;14.30;;;12.80;;
1649;SDS011;822;53.670;8.676;2022-09-09T04:38:39;11.93;;;10.73;;
1649;SDS011;822;53.670;8.676;2022-09-09T04:41:07;11.03;;;10.03;;
1649;SDS011;822;53.670;8.676;2022-09-09T04:43:36;11.37;;;9.90;;
1649;SDS011;822;53.670;8.676;2022-09-09T04:46:08;12.10;;;10.30;;
1649;SDS011;822;53.670;8.676;2022-09-09T04:48:37;11.90;;;10.73;;
1649;SDS011;822;53.670;8.676;2022-09-09T04:51:04;11.00;;;9.97;;
1649;SDS011;822;53.670;8.676;2022-09-09T04:53:33;12.73;;;10.47;;
1649;SDS011;822;53.670;8.676;2022-09-09T04:56:01;10.20;;;9.30;;
1649;SDS011;822;53.670;8.676;2022-09-09T04:58:29;11.43;;;10.33;;
1649;SDS011;822;53.670;8.676;2022-09-09T05:01:03;9.57;;;8.60;;
1649;SDS011;822;53.670;8.676;2022-09-09T05:03:34;13.60;;;10.80;;
1649;SDS011;822;53.670;8.676;2022-09-09T05:06:03;12.20;;;10.90;;
1649;SDS011;822;53.670;8.676;2022-09-09T05:08:34;10.30;;;9.30;;
1649;SDS011;822;53.670;8.676;2022-09-09T05:11:03;10.47;;;9.50;;
1649;SDS011;822;53.670;8.676;2022-09-09T05:13:30;11.17;;;10.13;;
1649;SDS011;822;53.670;8.676;2022-09-09T05:15:58;11.40;;;10.17;;
1649;SDS011;822;53.670;8.676;2022-09-09T05:18:25;13.90;;;11.30;;
1649;SDS011;822;53.670;8.676;2022-09-09T05:20:56;10.17;;;9.07;;
1649;SDS011;822;53.670;8.676;2022-09-09T05:23:25;10.27;;;9.30;;
1649;SDS011;822;53.670;8.676;2022-09-09T05:25:56;9.00;;;8.20;;
1649;SDS011;822;53.670;8.676;2022-09-09T05:28:23;9.27;;;8.47;;
1649;SDS011;822;53.670;8.676;2022-09-09T05:30:57;9.10;;;8.30;;
1649;SDS011;822;53.670;8.676;2022-09-09T05:33:25;7.93;;;7.13;;
1649;SDS011;822;53.670;8.676;2022-09-09T05:35:58;8.00;;;7.20;;
1649;SDS011;822;53.670;8.676;2022-09-09T05:38:26;11.03;;;8.70;;
1649;SDS011;822;53.670;8.676;2022-09-09T05:40:54;8.53;;;7.83;;
1649;SDS011;822;53.670;8.676;2022-09-09T05:43:22;9.53;;;8.37;;
1649;SDS011;822;53.670;8.676;2022-09-09T05:45:58;7.77;;;7.10;;
1649;SDS011;822;53.670;8.676;2022-09-09T05:48:28;7.40;;;6.70;;
1649;SDS011;822;53.670;8.676;2022-09-09T05:50:57;8.00;;;7.20;;
1649;SDS011;822;53.670;8.676;2022-09-09T05:53:24;6.83;;;6.13;;
1649;SDS011;822;53.670;8.676;2022-09-09T05:55:58;5.70;;;5.10;;
1649;SDS011;822;53.670;8.676;2022-09-09T05:58:25;5.20;;;4.50;;
1649;SDS011;822;53.670;8.676;2022-09-09T06:00:52;3.43;;;3.13;;
1649;SDS011;822;53.670;8.676;2022-09-09T06:03:20;5.07;;;4.67;;
1649;SDS011;822;53.670;8.676;2022-09-09T06:05:57;3.60;;;3.37;;
1649;SDS011;822;53.670;8.676;2022-09-09T06:08:25;3.47;;;3.27;;
1649;SDS011;822;53.670;8.676;2022-09-09T06:10:52;3.50;;;3.20;;
1649;SDS011;822;53.670;8.676;2022-09-09T06:13:19;3.70;;;3.10;;
1649;SDS011;822;53.670;8.676;2022-09-09T06:15:49;4.37;;;4.07;;
1649;SDS011;822;53.670;8.676;2022-09-09T06:18:17;3.27;;;2.97;;
1649;SDS011;822;53.670;8.676;2022-09-09T06:20:53;4.10;;;3.70;;
1649;SDS011;822;53.670;8.676;2022-09-09T06:23:22;3.57;;;3.27;;
1649;SDS011;822;53.670;8.676;2022-09-09T06:25:49;3.20;;;3.00;;
1649;SDS011;822;53.670;8.676;2022-09-09T06:28:16;3.80;;;3.50;;
1649;SDS011;822;53.670;8.676;2022-09-09T06:30:44;4.10;;;3.70;;
1649;SDS011;822;53.670;8.676;2022-09-09T06:36:26;3.67;;;3.30;;
1649;SDS011;822;53.670;8.676;2022-09-09T06:39:10;3.30;;;3.00;;
1649;SDS011;822;53.670;8.676;2022-09-09T06:41:38;3.37;;;3.07;;
1649;SDS011;822;53.670;8.676;2022-09-09T06:44:05;4.07;;;3.67;;
1649;SDS011;822;53.670;8.676;2022-09-09T06:46:35;3.53;;;3.23;;
1649;SDS011;822;53.670;8.676;2022-09-09T06:49:02;3.03;;;2.83;;
1649;SDS011;822;53.670;8.676;2022-09-09T06:51:29;5.03;;;4.63;;
1649;SDS011;822;53.670;8.676;2022-09-09T06:53:58;3.60;;;3.30;;
1649;SDS011;822;53.670;8.676;2022-09-09T06:56:29;3.27;;;2.97;;
1649;SDS011;822;53.670;8.676;2022-09-09T06:58:57;3.10;;;2.90;;
1649;SDS011;822;53.670;8.676;2022-09-09T07:01:30;2.90;;;2.70;;
1649;SDS011;822;53.670;8.676;2022-09-09T07:03:58;4.00;;;3.50;;
1649;SDS011;822;53.670;8.676;2022-09-09T07:06:26;3.77;;;3.47;;
1649;SDS011;822;53.670;8.676;2022-09-09T07:08:54;3.77;;;3.47;;
1649;SDS011;822;53.670;8.676;2022-09-09T07:11:24;3.57;;;3.27;;
1649;SDS011;822;53.670;8.676;2022-09-09T07:13:56;2.97;;;2.77;;
1649;SDS011;822;53.670;8.676;2022-09-09T07:16:37;4.20;;;2.70;;
1649;SDS011;822;53.670;8.676;2022-09-09T07:19:05;2.63;;;2.30;;
1649;SDS011;822;53.670;8.676;2022-09-09T07:21:32;2.47;;;2.27;;
1649;SDS011;822;53.670;8.676;2022-09-09T07:24:00;2.60;;;2.40;;
1649;SDS011;822;53.670;8.676;2022-09-09T07:26:28;2.60;;;2.40;;
1649;SDS011;822;53.670;8.676;2022-09-09T07:28:57;2.80;;;2.60;;
1649;SDS011;822;53.670;8.676;2022-09-09T07:31:25;3.37;;;3.10;;
1649;SDS011;822;53.670;8.676;2022-09-09T07:33:55;2.20;;;2.00;;
1649;SDS011;822;53.670;8.676;2022-09-09T07:36:23;2.53;;;2.33;;
1649;SDS011;822;53.670;8.676;2022-09-09T07:38:51;2.27;;;2.07;;
1649;SDS011;822;53.670;8.676;2022-09-09T07:41:20;2.43;;;2.23;;
1649;SDS011;822;53.670;8.676;2022-09-09T07:43:50;2.40;;;2.20;;
1649;SDS011;822;53.670;8.676;2022-09-09T07:46:21;1.80;;;1.70;;
1649;SDS011;822;53.670;8.676;2022-09-09T07:48:49;2.50;;;2.13;;
1649;SDS011;822;53.670;8.676;2022-09-09T07:51:19;1.50;;;1.40;;
1649;SDS011;822;53.670;8.676;2022-09-09T07:53:47;1.53;;;1.50;;
1649;SDS011;822;53.670;8.676;2022-09-09T07:56:16;1.60;;;1.50;;
1649;SDS011;822;53.670;8.676;2022-09-09T07:58:44;1.37;;;1.27;;
1649;SDS011;822;53.670;8.676;2022-09-09T08:01:13;1.27;;;1.20;;
1649;SDS011;822;53.670;8.676;2022-09-09T08:03:42;1.50;;;1.40;;
1649;SDS011;822;53.670;8.676;2022-09-09T08:06:09;1.30;;;1.20;;
1649;SDS011;822;53.670;8.676;2022-09-09T08:08:37;0.87;;;0.87;;
1649;SDS011;822;53.670;8.676;2022-09-09T08:11:07;1.17;;;1.13;;
1649;SDS011;822;53.670;8.676;2022-09-09T08:13:36;1.33;;;1.23;;
1649;SDS011;822;53.670;8.676;2022-09-09T08:16:06;0.87;;;0.87;;
1649;SDS011;822;53.670;8.676;2022-09-09T08:18:34;0.83;;;0.83;;
1649;SDS011;822;53.670;8.676;2022-09-09T08:21:08;1.70;;;1.60;;
1649;SDS011;822;53.670;8.676;2022-09-09T08:23:38;0.87;;;0.87;;
1649;SDS011;822;53.670;8.676;2022-09-09T08:26:07;2.43;;;1.07;;
1649;SDS011;822;53.670;8.676;2022-09-09T08:28:36;1.33;;;1.23;;
1649;SDS011;822;53.670;8.676;2022-09-09T08:31:08;0.57;;;0.57;;
1649;SDS011;822;53.670;8.676;2022-09-09T08:33:37;0.70;;;0.70;;
1649;SDS011;822;53.670;8.676;2022-09-09T08:36:05;0.60;;;0.60;;
1649;SDS011;822;53.670;8.676;2022-09-09T08:38:35;0.40;;;0.40;;
1649;SDS011;822;53.670;8.676;2022-09-09T08:41:14;0.50;;;0.50;;
1649;SDS011;822;53.670;8.676;2022-09-09T08:43:49;0.50;;;0.50;;
1649;SDS011;822;53.670;8.676;2022-09-09T08:46:18;0.40;;;0.40;;
1649;SDS011;822;53.670;8.676;2022-09-09T08:48:50;0.73;;;0.73;;
1649;SDS011;822;53.670;8.676;2022-09-09T08:51:21;0.50;;;0.50;;
1649;SDS011;822;53.670;8.676;2022-09-09T08:53:54;0.60;;;0.60;;
1649;SDS011;822;53.670;8.676;2022-09-09T08:56:24;0.60;;;0.50;;
1649;SDS011;822;53.670;8.676;2022-09-09T08:58:52;0.47;;;0.47;;
1649;SDS011;822;53.670;8.676;2022-09-09T09:01:24;0.40;;;0.40;;
1649;SDS011;822;53.670;8.676;2022-09-09T09:04:02;1.03;;;0.80;;
1649;SDS011;822;53.670;8.676;2022-09-09T09:06:42;0.60;;;0.60;;
1649;SDS011;822;53.670;8.676;2022-09-09T09:09:16;0.87;;;0.60;;
1649;SDS011;822;53.670;8.676;2022-09-09T09:11:48;0.50;;;0.40;;
1649;SDS011;822;53.670;8.676;2022-09-09T09:14:17;0.70;;;0.70;;
1649;SDS011;822;53.670;8.676;2022-09-09T09:16:49;1.00;;;1.00;;
1649;SDS011;822;53.670;8.676;2022-09-09T09:19:18;0.80;;;0.80;;
1649;SDS011;822;53.670;8.676;2022-09-09T09:21:48;0.60;;;0.60;;
1649;SDS011;822;53.670;8.676;2022-09-09T09:24:20;0.83;;;0.80;;
1649;SDS011;822;53.670;8.676;2022-09-09T09:26:50;0.60;;;0.60;;
1649;SDS011;822;53.670;8.676;2022-09-09T09:29:19;0.60;;;0.50;;
1649;SDS011;822;53.670;8.676;2022-09-09T09:31:47;0.60;;;0.50;;
1649;SDS011;822;53.670;8.676;2022-09-09T09:34:17;0.50;;;0.40;;
1649;SDS011;822;53.670;8.676;2022-09-09T09:36:44;0.57;;;0.50;;
1649;SDS011;822;53.670;8.676;2022-09-09T09:39:23;0.43;;;0.43;;
1649;SDS011;822;53.670;8.676;2022-09-09T09:41:51;0.70;;;0.70;;
1649;SDS011;822;53.670;8.676;2022-09-09T09:44:22;0.60;;;0.60;;
1649;SDS011;822;53.670;8.676;2022-09-09T09:46:51;1.33;;;0.70;;
1649;SDS011;822;53.670;8.676;2022-09-09T09:49:19;0.50;;;0.50;;
1649;SDS011;822;53.670;8.676;2022-09-09T09:51:46;0.50;;;0.40;;
1649;SDS011;822;53.670;8.676;2022-09-09T09:54:17;0.60;;;0.60;;
1649;SDS011;822;53.670;8.676;2022-09-09T09:56:50;0.50;;;0.50;;
1649;SDS011;822;53.670;8.676;2022-09-09T09:59:23;0.90;;;0.90;;
1649;SDS011;822;53.670;8.676;2022-09-09T10:02:10;0.57;;;0.57;;
1649;SDS011;822;53.670;8.676;2022-09-09T10:04:41;0.63;;;0.63;;
1649;SDS011;822;53.670;8.676;2022-09-09T10:07:10;0.47;;;0.40;;
1649;SDS011;822;53.670;8.676;2022-09-09T10:09:37;0.90;;;0.90;;
1649;SDS011;822;53.670;8.676;2022-09-09T10:12:08;1.00;;;0.90;;
1649;SDS011;822;53.670;8.676;2022-09-09T10:14:44;0.90;;;0.80;;
1649;SDS011;822;53.670;8.676;2022-09-09T10:17:16;0.90;;;0.90;;
1649;SDS011;822;53.670;8.676;2022-09-09T10:19:49;0.93;;;0.93;;
1649;SDS011;822;53.670;8.676;2022-09-09T10:22:25;0.80;;;0.80;;
1649;SDS011;822;53.670;8.676;2022-09-09T10:24:57;0.90;;;0.90;;
1649;SDS011;822;53.670;8.676;2022-09-09T10:27:47;0.73;;;0.70;;
1649;SDS011;822;53.670;8.676;2022-09-09T10:30:32;0.70;;;0.60;;
1649;SDS011;822;53.670;8.676;2022-09-09T10:33:09;0.70;;;0.70;;
1649;SDS011;822;53.670;8.676;2022-09-09T10:35:39;0.70;;;0.70;;
1649;SDS011;822;53.670;8.676;2022-09-09T10:38:17;0.70;;;0.70;;
1649;SDS011;822;53.670;8.676;2022-09-09T10:43:43;0.70;;;0.70;;
1649;SDS011;822;53.670;8.676;2022-09-09T10:46:29;0.70;;;0.70;;
1649;SDS011;822;53.670;8.676;2022-09-09T10:49:04;0.70;;;0.70;;
1649;SDS011;822;53.670;8.676;2022-09-09T10:51:39;1.40;;;1.30;;
1649;SDS011;822;53.670;8.676;2022-09-09T10:54:17;0.77;;;0.77;;
1649;SDS011;822;53.670;8.676;2022-09-09T10:56:52;0.77;;;0.77;;
1649;SDS011;822;53.670;8.676;2022-09-09T10:59:24;1.00;;;1.00;;
1649;SDS011;822;53.670;8.676;2022-09-09T11:01:53;1.40;;;1.30;;
1649;SDS011;822;53.670;8.676;2022-09-09T11:04:25;1.57;;;1.47;;
1649;SDS011;822;53.670;8.676;2022-09-09T11:06:57;1.17;;;1.17;;
1649;SDS011;822;53.670;8.676;2022-09-09T11:09:31;1.30;;;1.30;;
1649;SDS011;822;53.670;8.676;2022-09-09T11:12:00;1.57;;;1.47;;
1649;SDS011;822;53.670;8.676;2022-09-09T11:14:29;1.37;;;1.27;;
1649;SDS011;822;53.670;8.676;2022-09-09T11:17:00;1.00;;;1.00;;
1649;SDS011;822;53.670;8.676;2022-09-09T11:19:31;1.70;;;1.60;;
1649;SDS011;822;53.670;8.676;2022-09-09T11:22:01;1.77;;;1.67;;
1649;SDS011;822;53.670;8.676;2022-09-09T11:24:31;1.30;;;1.30;;
1649;SDS011;822;53.670;8.676;2022-09-09T11:27:02;1.00;;;1.00;;
1649;SDS011;822;53.670;8.676;2022-09-09T11:29:43;1.17;;;1.17;;
1649;SDS011;822;53.670;8.676;2022-09-09T11:32:28;1.13;;;1.13;;
1649;SDS011;822;53.670;8.676;2022-09-09T11:35:11;1.07;;;1.07;;
1649;SDS011;822;53.670;8.676;2022-09-09T11:37:52;0.73;;;0.73;;
1649;SDS011;822;53.670;8.676;2022-09-09T11:40:27;0.70;;;0.70;;
1649;SDS011;822;53.670;8.676;2022-09-09T11:43:05;0.80;;;0.80;;
1649;SDS011;822;53.670;8.676;2022-09-09T11:45:39;0.60;;;0.60;;
1649;SDS011;822;53.670;8.676;2022-09-09T11:48:21;0.80;;;0.80;;
1649;SDS011;822;53.670;8.676;2022-09-09T11:50:57;0.70;;;0.70;;
1649;SDS011;822;53.670;8.676;2022-09-09T11:53:25;0.83;;;0.83;;
1649;SDS011;822;53.670;8.676;2022-09-09T11:56:06;0.80;;;0.80;;
1649;SDS011;822;53.670;8.676;2022-09-09T11:58:40;1.00;;;1.00;;
1649;SDS011;822;53.670;8.676;2022-09-09T12:07:03;0.80;;;0.80;;
1649;SDS011;822;53.670;8.676;2022-09-09T12:09:33;0.87;;;0.87;;
1649;SDS011;822;53.670;8.676;2022-09-09T12:12:23;1.00;;;1.00;;
1649;SDS011;822;53.670;8.676;2022-09-09T12:14:55;0.57;;;0.57;;
1649;SDS011;822;53.670;8.676;2022-09-09T12:17:43;0.70;;;0.70;;
1649;SDS011;822;53.670;8.676;2022-09-09T12:20:13;1.00;;;0.83;;
1649;SDS011;822;53.670;8.676;2022-09-09T12:22:47;0.97;;;0.87;;
1649;SDS011;822;53.670;8.676;2022-09-09T12:25:23;1.00;;;1.00;;
1649;SDS011;822;53.670;8.676;2022-09-09T12:27:58;0.80;;;0.80;;
1649;SDS011;822;53.670;8.676;2022-09-09T12:30:29;0.80;;;0.80;;
1649;SDS011;822;53.670;8.676;2022-09-09T12:33:02;0.80;;;0.80;;
1649;SDS011;822;53.670;8.676;2022-09-09T12:35:29;0.80;;;0.80;;
1649;SDS011;822;53.670;8.676;2022-09-09T12:37:57;1.20;;;0.80;;
1649;SDS011;822;53.670;8.676;2022-09-09T12:40:26;0.90;;;0.90;;
1649;SDS011;822;53.670;8.676;2022-09-09T12:42:55;1.10;;;1.10;;
1649;SDS011;822;53.670;8.676;2022-09-09T12:45:22;0.90;;;0.90;;
1649;SDS011;822;53.670;8.676;2022-09-09T12:47:51;0.90;;;0.90;;
1649;SDS011;822;53.670;8.676;2022-09-09T12:50:22;1.00;;;1.00;;
1649;SDS011;822;53.670;8.676;2022-09-09T12:52:51;0.90;;;0.90;;
1649;SDS011;822;53.670;8.676;2022-09-09T12:55:20;0.70;;;0.70;;
1649;SDS011;822;53.670;8.676;2022-09-09T12:57:51;1.03;;;1.00;;
1649;SDS011;822;53.670;8.676;2022-09-09T13:00:19;0.67;;;0.67;;
1649;SDS011;822;53.670;8.676;2022-09-09T13:02:49;0.80;;;0.80;;
1649;SDS011;822;53.670;8.676;2022-09-09T13:05:18;0.90;;;0.90;;
1649;SDS011;822;53.670;8.676;2022-09-09T13:07:48;1.30;;;1.00;;
1649;SDS011;822;53.670;8.676;2022-09-09T13:10:20;1.00;;;1.00;;
1649;SDS011;822;53.670;8.676;2022-09-09T13:12:49;0.97;;;0.67;;
1649;SDS011;822;53.670;8.676;2022-09-09T13:15:19;0.77;;;0.77;;
1649;SDS011;822;53.670;8.676;2022-09-09T13:17:50;1.00;;;1.00;;
1649;SDS011;822;53.670;8.676;2022-09-09T13:20:20;0.80;;;0.80;;
1649;SDS011;822;53.670;8.676;2022-09-09T13:22:50;0.90;;;0.90;;
1649;SDS011;822;53.670;8.676;2022-09-09T13:25:19;0.80;;;0.80;;
1649;SDS011;822;53.670;8.676;2022-09-09T13:27:51;0.87;;;0.87;;
1649;SDS011;822;53.670;8.676;2022-09-09T13:30:20;0.87;;;0.87;;
1649;SDS011;822;53.670;8.676;2022-09-09T13:32:59;1.00;;;1.00;;
1649;SDS011;822;53.670;8.676;2022-09-09T13:35:27;1.13;;;1.13;;
1649;SDS011;822;53.670;8.676;2022-09-09T13:37:57;1.30;;;1.30;;
1649;SDS011;822;53.670;8.676;2022-09-09T13:40:25;0.93;;;0.93;;
1649;SDS011;822;53.670;8.676;2022-09-09T13:42:52;1.33;;;1.23;;
1649;SDS011;822;53.670;8.676;2022-09-09T13:45:22;1.03;;;0.97;;
1649;SDS011;822;53.670;8.676;2022-09-09T13:47:51;1.60;;;1.50;;
1649;SDS011;822;53.670;8.676;2022-09-09T13:50:21;1.40;;;1.30;;
1649;SDS011;822;53.670;8.676;2022-09-09T13:52:50;0.73;;;0.73;;
1649;SDS011;822;53.670;8.676;2022-09-09T13:55:21;0.97;;;0.87;;
1649;SDS011;822;53.670;8.676;2022-09-09T13:57:52;0.70;;;0.60;;
1649;SDS011;822;53.670;8.676;2022-09-09T14:00:20;0.60;;;0.60;;
1649;SDS011;822;53.670;8.676;2022-09-09T14:02:47;0.53;;;0.53;;
1649;SDS011;822;53.670;8.676;2022-09-09T14:05:14;0.80;;;0.80;;
1649;SDS011;822;53.670;8.676;2022-09-09T14:07:41;1.07;;;0.77;;
1649;SDS011;822;53.670;8.676;2022-09-09T14:10:09;0.73;;;0.73;;
1649;SDS011;822;53.670;8.676;2022-09-09T14:12:37;1.00;;;0.90;;
1649;SDS011;822;53.670;8.676;2022-09-09T14:15:05;0.70;;;0.70;;
1649;SDS011;822;53.670;8.676;2022-09-09T14:17:34;0.73;;;0.73;;
1649;SDS011;822;53.670;8.676;2022-09-09T14:20:02;0.93;;;0.93;;
1649;SDS011;822;53.670;8.676;2022-09-09T14:22:31;0.80;;;0.80;;
1649;SDS011;822;53.670;8.676;2022-09-09T14:24:58;0.70;;;0.70;;
1649;SDS011;822;53.670;8.676;2022-09-09T14:27:25;0.60;;;0.60;;
1649;SDS011;822;53.670;8.676;2022-09-09T14:29:53;0.70;;;0.70;;
1649;SDS011;822;53.670;8.676;2022-09-09T14:32:20;0.60;;;0.60;;
1649;SDS011;822;53.670;8.676;2022-09-09T14:34:47;0.60;;;0.60;;
1649;SDS011;822;53.670;8.676;2022-09-09T14:37:15;0.70;;;0.70;;
1649;SDS011;822;53.670;8.676;2022-09-09T14:39:42;0.70;;;0.70;;
1649;SDS011;822;53.670;8.676;2022-09-09T14:42:09;0.90;;;0.90;;
1649;SDS011;822;53.670;8.676;2022-09-09T14:44:37;1.03;;;1.03;;
1649;SDS011;822;53.670;8.676;2022-09-09T14:47:05;1.23;;;1.17;;
1649;SDS011;822;53.670;8.676;2022-09-09T14:49:33;0.80;;;0.80;;
1649;SDS011;822;53.670;8.676;2022-09-09T14:52:00;0.67;;;0.67;;
1649;SDS011;822;53.670;8.676;2022-09-09T14:54:27;0.70;;;0.70;;
1649;SDS011;822;53.670;8.676;2022-09-09T14:56:54;0.77;;;0.77;;
1649;SDS011;822;53.670;8.676;2022-09-09T14:59:22;0.70;;;0.70;;
1649;SDS011;822;53.670;8.676;2022-09-09T15:01:49;0.63;;;0.60;;
1649;SDS011;822;53.670;8.676;2022-09-09T15:04:17;0.50;;;0.50;;
1649;SDS011;822;53.670;8.676;2022-09-09T15:06:44;0.70;;;0.70;;
1649;SDS011;822;53.670;8.676;2022-09-09T15:09:13;0.70;;;0.63;;
1649;SDS011;822;53.670;8.676;2022-09-09T15:11:40;0.60;;;0.60;;
1649;SDS011;822;53.670;8.676;2022-09-09T15:14:08;0.70;;;0.70;;
1649;SDS011;822;53.670;8.676;2022-09-09T15:16:35;0.70;;;0.70;;
1649;SDS011;822;53.670;8.676;2022-09-09T15:19:02;0.60;;;0.60;;
1649;SDS011;822;53.670;8.676;2022-09-09T15:21:31;0.80;;;0.80;;
1649;SDS011;822;53.670;8.676;2022-09-09T15:24:00;1.00;;;1.00;;
1649;SDS011;822;53.670;8.676;2022-09-09T15:26:28;0.80;;;0.80;;
1649;SDS011;822;53.670;8.676;2022-09-09T15:28:55;0.80;;;0.80;;
1649;SDS011;822;53.670;8.676;2022-09-09T15:31:25;0.57;;;0.57;;
1649;SDS011;822;53.670;8.676;2022-09-09T15:33:54;0.80;;;0.80;;
1649;SDS011;822;53.670;8.676;2022-09-09T15:36:26;0.90;;;0.90;;
1649;SDS011;822;53.670;8.676;2022-09-09T15:38:56;0.60;;;0.60;;
1649;SDS011;822;53.670;8.676;2022-09-09T15:41:23;0.73;;;0.73;;
1649;SDS011;822;53.670;8.676;2022-09-09T15:43:50;1.03;;;0.93;;
1649;SDS011;822;53.670;8.676;2022-09-09T15:46:25;1.10;;;1.10;;
1649;SDS011;822;53.670;8.676;2022-09-09T15:48:54;1.00;;;1.00;;
1649;SDS011;822;53.670;8.676;2022-09-09T15:51:22;1.17;;;1.00;;
1649;SDS011;822;53.670;8.676;2022-09-09T15:53:53;0.90;;;0.90;;